Time;durP1;ratioP1;P1;durP2;ratioP2;P2;SDS_P1;SDS_P2;PMS_P1;PMS_P2;Temp;Humidity;BMP_temperature;BMP_pressure;BME280_temperature;BME280_humidity;BME280_pressure;Samples;Min_cycle;Max_cycle;Signal;HPM_P1;HPM_P2
2022/11/08 00:01:44;;;;;;;8.82;2.08;;;;;;;8.22;88.25;100513.13;5113330;28;20070;-77
2022/11/08 00:04:47;;;;;;;8.57;2.17;;;;;;;8.45;87.91;100509.56;5113177;28;20050;-77
2022/11/08 00:14:35;;;;;;;14.02;3.28;;;;;;;8.24;87.33;100500.91;5112872;28;20458;-77
2022/11/08 00:17:38;;;;;;;;;;;;;;;8.30;87.86;100499.78;5113661;28;20098;-77
2022/11/08 00:20:42;;;;;;;13.73;4.15;;;;;;;8.28;87.99;100501.59;5113325;28;19958;-77
2022/11/08 00:23:46;;;;;;;9.18;3.83;;;;;;;8.26;88.43;100500.81;5112899;28;20049;-77
2022/11/08 00:26:49;;;;;;;;;;;;;;;8.22;88.05;100497.50;5113306;28;20085;-77
2022/11/08 00:29:53;;;;;;;6.03;2.40;;;;;;;8.13;87.75;100496.13;5113058;28;19939;-77
2022/11/08 00:32:56;;;;;;;;;;;;;;;8.31;87.17;100497.09;5113409;28;20408;-77
2022/11/08 00:36:00;;;;;;;9.57;2.60;;;;;;;8.40;86.93;100485.47;5113184;28;19919;-77
2022/11/08 00:39:04;;;;;;;14.60;4.53;;;;;;;8.22;87.86;100496.66;5112941;28;20431;-76
2022/11/08 00:42:07;;;;;;;9.38;2.97;;;;;;;8.25;88.24;100496.53;5112739;28;20420;-76
2022/11/08 00:45:10;;;;;;;12.13;3.13;;;;;;;8.25;88.42;100501.75;5112626;28;20086;-77
2022/11/08 00:48:14;;;;;;;5.85;1.77;;;;;;;8.15;88.66;100504.72;5112275;28;20063;-78
2022/11/08 00:51:18;;;;;;;9.07;2.00;;;;;;;8.10;88.95;100504.09;5112236;28;20042;-78
2022/11/08 00:54:21;;;;;;;;;;;;;;;8.14;88.57;100494.41;5113242;28;20042;-78
2022/11/08 00:57:24;;;;;;;11.88;2.63;;;;;;;8.21;88.46;100488.00;5112104;28;20383;-78
2022/11/08 01:00:28;;;;;;;5.68;2.15;;;;;;;8.36;88.32;100495.16;5112771;28;20131;-77
2022/11/08 01:03:31;;;;;;;13.50;3.38;;;;;;;8.26;87.92;100487.78;5112961;28;20054;-77
2022/11/08 01:06:35;;;;;;;;;;;;;;;8.20;88.60;100482.84;5113041;28;20088;-76
2022/11/08 01:09:38;;;;;;;10.23;3.00;;;;;;;8.24;88.60;100487.88;5112824;28;19964;-77
2022/11/08 01:12:41;;;;;;;5.28;2.28;;;;;;;8.44;88.00;100488.78;5115301;28;20473;-77
2022/11/08 01:15:45;;;;;;;;;;;;;;;8.43;87.76;100490.56;5116351;28;20128;-76
2022/11/08 01:18:51;;;;;;;5.15;2.25;;;;;;;8.59;87.51;100485.53;5116471;28;19960;-77
2022/11/08 01:21:54;;;;;;;8.02;2.55;;;;;;;8.40;88.55;100484.63;5116136;28;20073;-77
2022/11/08 01:24:57;;;;;;;;;;;;;;;8.23;89.53;100482.72;5116506;28;20043;-77
2022/11/08 01:28:00;;;;;;;9.88;2.72;;;;;;;8.35;89.43;100487.41;5115978;28;20015;-77
2022/11/08 01:31:06;;;;;;;13.93;3.10;;;;;;;8.46;89.12;100480.00;5116239;28;20050;-77
2022/11/08 01:34:09;;;;;;;19.23;2.97;;;;;;;8.35;89.69;100482.19;5115795;28;20463;-77
2022/11/08 01:37:14;;;;;;;11.52;2.92;;;;;;;8.43;89.54;100480.13;5115741;28;20051;-77
2022/11/08 01:40:17;;;;;;;14.88;3.40;;;;;;;8.45;88.70;100486.09;5115803;28;20046;-77
2022/11/08 01:43:29;;;;;;;;;;;;;;;8.47;88.56;100488.66;5116639;28;20140;-77
2022/11/08 01:46:43;;;;;;;13.23;2.88;;;;;;;8.36;88.97;100478.69;5115762;28;19919;-77
2022/11/08 01:49:46;;;;;;;6.22;2.88;;;;;;;8.34;89.00;100476.13;5115851;28;20511;-76
2022/11/08 01:52:54;;;;;;;8.63;3.58;;;;;;;8.13;90.41;100477.06;5115841;28;20103;-77
2022/11/08 01:55:58;;;;;;;9.73;3.20;;;;;;;8.22;90.65;100481.88;5103022;28;20110;-78
2022/11/08 01:59:06;;;;;;;14.43;2.95;;;;;;;8.23;90.81;100475.78;5114805;28;20046;-78
2022/11/08 02:02:11;;;;;;;23.80;3.08;;;;;;;8.26;91.27;100472.16;5115825;28;20131;-78
2022/11/08 02:05:30;;;;;;;18.33;2.45;;;;;;;8.36;90.55;100468.25;5115324;28;20074;-79
2022/11/08 02:08:38;;;;;;;12.07;2.80;;;;;;;8.23;90.96;100460.16;5115638;28;20132;-78
2022/11/08 02:11:46;;;;;;;13.98;3.00;;;;;;;8.32;90.51;100466.69;5114353;28;20042;-78
2022/11/08 02:14:51;;;;;;;10.25;3.13;;;;;;;8.27;90.37;100459.09;5115053;28;20069;-78
2022/11/08 02:17:54;;;;;;;11.90;3.38;;;;;;;8.34;90.27;100454.44;5115289;28;20097;-78
2022/11/08 02:21:16;;;;;;;9.75;2.88;;;;;;;8.27;90.88;100443.47;5115053;28;20066;-78
2022/11/08 02:24:19;;;;;;;11.80;2.95;;;;;;;8.29;90.70;100453.78;5114643;28;20089;-78
2022/11/08 02:27:23;;;;;;;14.93;3.08;;;;;;;8.26;90.88;100441.75;5113977;28;20420;-78
2022/11/08 02:30:33;;;;;;;;;;;;;;;8.39;90.43;100447.28;5115318;28;20555;-78
2022/11/08 02:33:36;;;;;;;18.40;2.88;;;;;;;8.26;91.43;100438.31;5113835;28;19938;-78
2022/11/08 02:36:39;;;;;;;7.38;2.58;;;;;;;8.32;90.58;100430.22;5114753;28;20038;-78
2022/11/08 02:39:43;;;;;;;9.18;2.80;;;;;;;8.37;90.81;100429.09;5113608;28;20069;-78
2022/11/08 02:42:46;;;;;;;18.02;3.42;;;;;;;8.37;90.38;100426.50;5114917;28;20405;-78
2022/11/08 02:45:51;;;;;;;25.23;3.55;;;;;;;8.25;91.44;100429.66;5114440;28;20591;-78
2022/11/08 02:48:54;;;;;;;35.53;3.78;;;;;;;8.25;92.53;100428.81;5114639;28;20101;-77
2022/11/08 02:51:57;;;;;;;55.72;3.70;;;;;;;8.18;93.23;100424.78;5114579;28;20050;-78
2022/11/08 02:55:01;;;;;;;40.20;3.60;;;;;;;8.24;93.32;100411.50;5114273;28;20085;-78
2022/11/08 02:58:04;;;;;;;;;;;;;;;8.10;93.88;100412.94;5114590;28;20042;-78
2022/11/08 03:01:07;;;;;;;38.00;3.43;;;;;;;8.14;93.89;100409.28;5114450;28;19934;-78
2022/11/08 03:04:12;;;;;;;14.00;2.83;;;;;;;8.18;93.42;100407.41;5114277;28;20042;-78
2022/11/08 03:07:15;;;;;;;34.58;2.92;;;;;;;8.20;93.29;100404.72;5114145;28;20041;-78
2022/11/08 03:10:19;;;;;;;;;;;;;;;8.21;93.68;100401.22;5114791;28;20173;-78
2022/11/08 03:13:22;;;;;;;35.05;3.30;;;;;;;8.24;93.46;100406.28;5114103;28;20402;-78
2022/11/08 03:16:25;;;;;;;;;;;;;;;8.12;93.53;100402.44;5114808;28;20401;-78
2022/11/08 03:19:28;;;;;;;17.07;3.00;;;;;;;8.14;93.21;100401.47;5114119;28;19922;-78
2022/11/08 03:22:33;;;;;;;5.15;2.70;;;;;;;8.05;92.82;100396.66;5113934;28;20050;-78
2022/11/08 03:25:36;;;;;;;8.60;3.20;;;;;;;8.01;92.67;100394.25;5113806;28;20442;-78
2022/11/08 03:28:39;;;;;;;3.30;2.55;;;;;;;8.08;91.68;100391.31;5114222;28;20135;-78
2022/11/08 03:31:42;;;;;;;;;;;;;;;8.07;91.48;100379.22;5114419;28;20078;-78
2022/11/08 03:34:45;;;;;;;13.25;3.90;;;;;;;7.87;92.24;100387.88;5113588;28;19933;-78
2022/11/08 03:37:54;;;;;;;6.55;3.50;;;;;;;7.81;92.61;100382.09;5135118;28;20046;-77
2022/11/08 03:40:57;;;;;;;8.57;3.88;;;;;;;7.66;93.26;100379.25;5124033;28;20476;-78
2022/11/08 03:44:01;;;;;;;6.38;3.20;;;;;;;7.63;93.36;100379.38;5114186;28;20561;-78
2022/11/08 03:47:04;;;;;;;4.35;3.15;;;;;;;7.83;92.84;100380.28;5114336;28;20408;-78
2022/11/08 03:50:08;;;;;;;;;;;;;;;7.88;91.63;100373.09;5114031;28;20054;-78
2022/11/08 03:53:11;;;;;;;3.83;2.85;;;;;;;7.84;90.97;100375.00;5113479;28;20093;-80
2022/11/08 03:56:15;;;;;;;5.32;3.20;;;;;;;7.97;90.72;100369.28;5113178;28;20038;-79
2022/11/08 03:59:18;;;;;;;;;;;;;;;8.07;90.15;100368.81;5115357;28;20050;-78
2022/11/08 04:02:22;;;;;;;11.53;3.17;;;;;;;7.95;90.49;100361.53;5113677;28;19950;-78
2022/11/08 04:05:58;;;;;;;5.20;3.47;;;;;;;8.02;90.30;100360.34;5112897;28;20289;-78
2022/11/08 04:09:06;;;;;;;3.90;3.05;;;;;;;8.09;90.07;100359.16;5113571;28;20127;-78
2022/11/08 04:16:06;;;;;;;7.53;2.90;;;;;;;7.94;89.77;100346.81;5112952;28;20090;-78
2022/11/08 04:22:33;;;;;;;5.57;2.67;;;;;;;7.87;89.52;100340.19;5113067;28;20131;-78
2022/11/08 04:25:36;;;;;;;;;;;;;;;7.76;88.49;100338.06;5113321;28;20043;-79
2022/11/08 04:28:40;;;;;;;;;;;;;;;7.66;88.77;100322.00;5113384;28;19922;-78
2022/11/08 04:31:44;;;;;;;5.38;3.35;;;;;;;7.66;89.02;100329.81;5112908;28;20388;-77
2022/11/08 04:34:47;;;;;;;;;;;;;;;7.65;89.68;100330.72;5113464;28;20403;-77
2022/11/08 04:37:50;;;;;;;8.00;3.40;;;;;;;7.40;91.31;100328.34;5112278;28;20371;-77
2022/11/08 04:40:57;;;;;;;;;;;;;;;7.29;91.97;100329.69;5113196;28;20051;-75
2022/11/08 04:44:03;;;;;;;8.60;3.67;;;;;;;7.28;92.48;100328.84;5112689;28;19926;-78
2022/11/08 04:47:06;;;;;;;5.68;4.00;;;;;;;7.28;92.72;100321.03;5113712;28;20577;-77
2022/11/08 04:50:18;;;;;;;4.68;2.72;;;;;;;7.41;91.64;100326.56;5116923;28;20127;-78
2022/11/08 04:59:06;;;;;;;6.93;4.60;;;;;;;7.53;90.66;100304.38;5115770;28;20046;-77
2022/11/08 05:02:35;;;;;;;13.73;6.85;;;;;;;7.64;89.97;100292.59;5116748;28;20104;-79
2022/11/08 05:05:39;;;;;;;;;;;;;;;7.47;91.15;100297.69;5116863;28;20457;-78
2022/11/08 05:08:42;;;;;;;10.37;3.30;;;;;;;7.49;91.78;100288.06;5116459;28;19960;-77
2022/11/08 05:11:49;;;;;;;9.10;3.53;;;;;;;7.47;91.99;100284.69;5116275;28;20384;-77
2022/11/08 05:14:52;;;;;;;62.50;3.47;;;;;;;7.35;91.54;100290.41;5095642;28;20141;-78
2022/11/08 05:17:57;;;;;;;6.78;3.33;;;;;;;7.47;91.87;100279.50;5094869;28;20058;-76
2022/11/08 05:24:23;;;;;;;13.18;3.40;;;;;;;7.06;92.42;100287.28;5094273;28;20093;-78
2022/11/08 05:27:27;;;;;;;14.15;3.33;;;;;;;7.14;92.15;100295.59;5096013;28;20078;-80
2022/11/08 05:30:31;;;;;;;9.88;3.90;;;;;;;7.05;93.09;100293.41;5097501;28;20172;-78
2022/11/08 05:33:34;;;;;;;40.92;4.40;;;;;;;6.99;94.09;100293.66;5117129;28;20031;-76
2022/11/08 05:36:40;;;;;;;7.30;3.53;;;;;;;6.94;94.39;100296.44;5103433;28;20546;-79
2022/11/08 05:39:43;;;;;;;26.13;7.22;;;;;;;7.20;93.99;100292.75;5095331;28;20047;-77
2022/11/08 05:42:47;;;;;;;7.85;4.80;;;;;;;7.33;93.02;100292.22;5095550;28;20047;-79
2022/11/08 05:45:50;;;;;;;17.00;4.70;;;;;;;7.35;92.28;100296.47;5093038;28;20097;-77
2022/11/08 05:48:54;;;;;;;;;;;;;;;7.10;93.01;100288.84;5093188;28;20079;-79
2022/11/08 05:51:57;;;;;;;15.65;5.38;;;;;;;7.14;94.35;100290.41;5093296;28;19972;-79
2022/11/08 05:55:00;;;;;;;49.63;6.28;;;;;;;7.03;94.36;100290.00;5093936;28;20071;-82
2022/11/08 05:58:05;;;;;;;12.90;5.07;;;;;;;7.22;93.59;100285.72;5093164;28;20097;-81
2022/11/08 06:01:13;;;;;;;29.60;4.78;;;;;;;7.25;93.15;100278.72;5095350;28;20047;-81
2022/11/08 06:04:17;;;;;;;7.40;5.43;;;;;;;7.39;93.15;100263.34;5095121;28;20088;-81
2022/11/08 06:07:21;;;;;;;73.03;8.25;;;;;;;7.20;93.06;100258.94;5094075;28;20051;-82
2022/11/08 06:10:25;;;;;;;53.03;24.05;;;;;;;7.21;93.75;100252.84;5094901;28;20067;-81
2022/11/08 06:13:29;;;;;;;45.53;14.30;;;;;;;7.39;93.40;100258.16;5095021;28;20096;-82
2022/11/08 06:16:32;;;;;;;;;;;;;;;7.16;93.37;100257.38;5055124;28;20103;-82
2022/11/08 06:19:37;;;;;;;25.65;4.90;;;;;;;7.28;93.09;100244.78;5054844;28;20010;-81
2022/11/08 06:22:42;;;;;;;32.63;5.25;;;;;;;7.48;93.02;100223.94;5054486;28;20098;-81
2022/11/08 06:25:47;;;;;;;9.07;3.30;;;;;;;7.54;92.92;100218.47;5053733;28;20068;-81
2022/11/08 06:28:51;;;;;;;25.65;2.78;;;;;;;7.42;92.16;100219.84;5054384;28;20525;-81
2022/11/08 06:31:54;;;;;;;7.28;2.38;;;;;;;7.45;92.07;100230.13;5054503;28;20125;-80
2022/11/08 06:34:58;;;;;;;15.00;2.40;;;;;;;7.50;91.42;100232.53;5054379;28;20091;-82
2022/11/08 06:38:03;;;;;;;6.70;2.30;;;;;;;7.39;91.62;100240.78;5053588;28;20055;-82
2022/11/08 06:41:13;;;;;;;7.70;2.35;;;;;;;7.43;90.52;100231.09;5053837;28;20127;-82
2022/11/08 06:44:16;;;;;;;21.55;2.88;;;;;;;7.35;90.77;100233.19;5054028;28;20068;-82
2022/11/08 06:47:19;;;;;;;12.18;2.33;;;;;;;7.40;90.92;100249.44;5053288;28;20051;-81
2022/11/08 06:50:23;;;;;;;;;;;;;;;7.40;90.80;100257.22;5053747;28;20051;-81
2022/11/08 06:53:26;;;;;;;9.95;2.13;;;;;;;7.52;89.87;100243.69;5053293;28;19966;-81
2022/11/08 06:56:30;;;;;;;;;;;;;;;7.59;89.60;100233.84;5054505;28;20060;-83
2022/11/08 06:59:33;;;;;;;3.30;2.63;;;;;;;7.49;90.75;100243.00;5054120;28;19958;-78
2022/11/08 07:02:36;;;;;;;;;;;;;;;7.23;91.16;100245.81;5054169;28;20106;-80
2022/11/08 07:05:52;;;;;;;15.77;2.70;;;;;;;7.23;91.42;100247.56;5053691;28;19927;-82
2022/11/08 07:08:56;;;;;;;6.30;2.90;;;;;;;7.50;91.25;100236.84;5052035;28;20048;-83
2022/11/08 07:12:37;;;;;;;30.17;2.95;;;;;;;6.67;95.45;100245.59;5052704;28;20126;-78
2022/11/08 07:15:49;;;;;;;18.90;2.83;;;;;;;6.60;96.37;100257.13;5085461;28;20542;-77
2022/11/08 07:18:54;;;;;;;3.65;2.40;;;;;;;6.94;95.54;100254.00;5093537;28;20408;-80
2022/11/08 07:23:08;;;;;;;8.93;2.72;;;;;;;7.19;93.18;100252.06;5123165;27;20046;-78
2022/11/08 07:30:48;;;;;;;21.00;3.55;;;;;;;7.29;91.35;100262.06;5134705;27;20050;-81
2022/11/08 07:33:54;;;;;;;4.07;3.05;;;;;;;7.29;91.73;100255.09;5133591;27;20122;-81
2022/11/08 07:36:57;;;;;;;6.82;2.90;;;;;;;7.36;92.04;100255.69;5134483;27;20108;-80
2022/11/08 07:40:00;;;;;;;8.90;3.22;;;;;;;7.40;91.36;100258.09;5134247;27;20182;-81
2022/11/08 07:43:04;;;;;;;14.32;3.58;;;;;;;7.37;91.33;100263.44;5134289;27;20045;-80
2022/11/08 07:46:08;;;;;;;4.45;3.28;;;;;;;7.38;91.71;100266.88;5133083;27;20056;-80
2022/11/08 07:49:11;;;;;;;;;;;;;;;7.38;91.15;100264.28;5133948;27;20084;-79
2022/11/08 07:52:39;;;;;;;9.60;3.08;;;;;;;7.38;91.35;100269.47;5134630;27;20333;-79
2022/11/08 07:55:44;;;;;;;14.20;7.57;;;;;;;7.34;91.47;100278.31;5132725;27;20168;-75
2022/11/08 07:59:08;;;;;;;9.75;3.60;;;;;;;7.43;91.94;100270.09;5133988;27;20127;-79
2022/11/08 08:02:13;;;;;;;5.20;3.35;;;;;;;7.45;91.07;100270.91;5121086;27;20053;-79
2022/11/08 08:05:17;;;;;;;10.95;4.18;;;;;;;7.53;90.55;100278.34;5143002;27;20073;-77
2022/11/08 08:08:43;;;;;;;14.60;3.58;;;;;;;7.18;91.90;100276.38;5134068;28;20084;-77
2022/11/08 08:11:49;;;;;;;4.53;3.78;;;;;;;7.28;91.90;100271.63;5133365;28;20400;-78
2022/11/08 08:15:14;;;;;;;6.18;4.28;;;;;;;7.41;91.55;100277.16;5131334;28;20038;-79
2022/11/08 08:18:20;;;;;;;8.40;4.80;;;;;;;7.27;92.29;100279.47;5133809;28;20050;-79
2022/11/08 08:21:42;;;;;;;5.85;4.90;;;;;;;7.51;91.74;100283.63;5137224;27;20074;-79
2022/11/08 08:24:50;;;;;;;4.97;4.00;;;;;;;7.46;91.63;100288.19;5136300;27;20092;-79
2022/11/08 08:28:11;;;;;;;20.77;3.83;;;;;;;7.30;92.17;100288.00;5136300;27;20050;-79
2022/11/08 08:31:34;;;;;;;5.70;4.60;;;;;;;7.53;92.70;100284.44;5138185;27;20046;-80
2022/11/08 08:35:07;;;;;;;13.63;4.95;;;;;;;7.64;91.20;100290.00;5138289;27;20260;-80
2022/11/08 08:38:17;;;;;;;6.27;4.60;;;;;;;7.74;90.87;100292.19;5124608;27;20460;-79
2022/11/08 08:41:39;;;;;;;9.20;4.78;;;;;;;7.73;91.97;100280.09;5137824;27;20090;-80
2022/11/08 08:45:01;;;;;;;7.07;4.05;;;;;;;7.93;91.52;100278.28;5137685;27;20408;-80
2022/11/08 08:48:05;;;;;;;7.00;3.42;;;;;;;8.06;90.77;100273.34;5137687;27;20080;-80
2022/11/08 08:51:33;;;;;;;6.20;4.30;;;;;;;8.20;90.44;100264.06;5137739;27;20050;-80
2022/11/08 08:54:59;;;;;;;8.43;6.20;;;;;;;8.15;90.57;100261.69;5137382;27;20262;-80
2022/11/08 08:58:22;;;;;;;6.25;5.15;;;;;;;8.10;91.81;100256.69;5137226;27;20049;-80
2022/11/08 09:01:34;;;;;;;6.80;4.90;;;;;;;8.27;91.87;100245.50;5137393;27;20086;-80
2022/11/08 09:04:40;;;;;;;5.55;4.25;;;;;;;8.35;91.65;100247.72;5137235;27;20323;-80
2022/11/08 09:07:46;;;;;;;5.43;3.65;;;;;;;8.49;91.48;100245.34;5137544;27;20049;-80
2022/11/08 09:11:08;;;;;;;5.38;3.97;;;;;;;8.54;91.25;100243.34;5137118;27;20545;-80
2022/11/08 09:14:13;;;;;;;5.15;4.65;;;;;;;8.56;90.63;100236.31;5137083;27;20066;-81
2022/11/08 09:17:17;;;;;;;5.28;3.78;;;;;;;8.54;91.77;100238.13;5137240;27;20199;-80
2022/11/08 09:20:22;;;;;;;7.55;4.47;;;;;;;8.50;92.68;100238.38;5137236;27;20054;-81
2022/11/08 09:23:32;;;;;;;6.90;4.50;;;;;;;8.54;92.62;100234.69;5136834;27;20568;-80
2022/11/08 09:26:40;;;;;;;5.28;4.20;;;;;;;8.36;94.76;100244.22;5137250;27;20072;-80
2022/11/08 09:29:45;;;;;;;5.35;4.47;;;;;;;8.48;95.56;100234.97;5136768;27;20501;-80
2022/11/08 09:32:52;;;;;;;5.32;4.28;;;;;;;8.56;95.11;100231.09;5135178;27;20108;-80
2022/11/08 09:35:58;;;;;;;6.57;4.57;;;;;;;8.71;95.02;100218.22;5136715;27;20406;-80
2022/11/08 09:39:03;;;;;;;7.43;4.15;;;;;;;8.72;94.83;100215.56;5136861;27;20046;-80
2022/11/08 09:42:34;;;;;;;6.45;4.45;;;;;;;8.76;95.38;100214.47;5135736;27;20057;-80
2022/11/08 09:45:51;;;;;;;4.93;3.72;;;;;;;8.92;94.69;100219.75;5136437;27;20183;-80
2022/11/08 09:49:07;;;;;;;4.47;3.80;;;;;;;9.02;95.34;100212.31;5135697;27;20107;-80
2022/11/08 09:52:20;;;;;;;4.75;3.70;;;;;;;9.11;94.59;100214.47;5136552;27;20176;-80
2022/11/08 09:55:27;;;;;;;;;;;;;;;9.12;94.88;100200.50;5137064;27;20123;-80
2022/11/08 09:58:37;;;;;;;3.63;3.08;;;;;;;9.45;95.64;100203.13;5135815;27;19921;-81
2022/11/08 10:01:43;;;;;;;4.55;3.60;;;;;;;9.54;95.15;100200.03;5136607;27;20046;-81
2022/11/08 10:04:55;;;;;;;4.10;3.08;;;;;;;9.71;95.67;100201.72;5135277;27;20051;-81
2022/11/08 10:08:24;;;;;;;5.85;3.40;;;;;;;9.95;95.31;100201.31;5136403;27;20557;-82
2022/11/08 10:11:43;;;;;;;3.72;2.83;;;;;;;9.86;94.70;100209.66;5136280;27;20049;-82
2022/11/08 10:15:29;;;;;;;4.75;2.63;;;;;;;10.14;95.67;100216.81;5135696;27;20086;-82
2022/11/08 10:19:14;;;;;;;5.90;4.07;;;;;;;10.40;94.39;100218.88;5135942;27;20061;-81
2022/11/08 10:26:20;;;;;;;5.00;2.10;;;;;;;10.52;97.07;100226.94;5134987;27;20067;-81
2022/11/08 10:29:32;;;;;;;5.82;2.20;;;;;;;10.58;96.87;100216.13;5134922;27;20046;-82
2022/11/08 10:32:38;;;;;;;3.75;1.98;;;;;;;10.61;94.61;100218.56;5135013;27;20046;-81
2022/11/08 10:36:19;;;;;;;3.75;1.90;;;;;;;10.71;94.44;100211.88;5135005;27;20449;-81
2022/11/08 10:39:27;;;;;;;3.88;2.00;;;;;;;10.74;95.09;100213.47;5135768;27;20054;-80
2022/11/08 10:42:46;;;;;;;6.18;2.20;;;;;;;10.81;96.20;100210.41;5134939;27;20522;-81
2022/11/08 10:45:49;;;;;;;5.85;1.40;;;;;;;10.85;98.08;100209.31;5122082;27;20123;-80
2022/11/08 10:49:23;;;;;;;5.18;1.52;;;;;;;10.89;97.26;100213.44;5135278;27;20407;-81
2022/11/08 10:53:04;;;;;;;6.30;1.95;;;;;;;10.87;100.00;100225.75;5072066;28;20075;-81
2022/11/08 10:56:09;;;;;;;3.55;2.20;;;;;;;10.88;98.36;100217.00;5090232;27;20449;-82
2022/11/08 10:59:34;;;;;;;5.40;2.40;;;;;;;10.97;97.65;100212.97;5135338;27;20050;-81
2022/11/08 11:02:41;;;;;;;3.65;1.77;;;;;;;11.10;98.94;100210.47;5134933;27;20084;-82
2022/11/08 11:06:19;;;;;;;7.53;4.68;;;;;;;11.05;97.48;100207.31;5134765;27;20047;-82
2022/11/08 11:09:26;;;;;;;5.38;3.92;;;;;;;11.09;97.02;100207.00;5134796;27;20568;-82
2022/11/08 11:12:37;;;;;;;5.05;2.00;;;;;;;11.16;98.49;100200.47;5134883;27;20046;-82
2022/11/08 11:16:04;;;;;;;5.88;2.08;;;;;;;11.15;98.43;100200.59;5134058;27;20050;-82
2022/11/08 11:19:13;;;;;;;4.72;2.20;;;;;;;11.21;97.84;100202.84;5134688;27;20077;-82
2022/11/08 11:22:27;;;;;;;5.50;1.73;;;;;;;11.28;96.63;100191.06;5134669;27;20404;-82
2022/11/08 11:25:30;;;;;;;2.90;1.45;;;;;;;11.31;98.04;100192.66;5156438;27;20053;-80
2022/11/08 11:28:35;;;;;;;2.70;1.15;;;;;;;11.32;99.58;100189.94;5144103;27;20096;-81
2022/11/08 11:31:40;;;;;;;3.65;1.50;;;;;;;11.39;98.49;100182.53;5134854;27;20039;-81
2022/11/08 11:39:10;;;;;;;5.20;1.38;;;;;;;11.58;96.55;100171.78;5133552;27;20131;-82
2022/11/08 11:42:36;;;;;;;6.15;2.00;;;;;;;11.66;94.94;100172.16;5133893;27;20073;-82
2022/11/08 11:46:35;;;;;;;6.45;3.95;;;;;;;11.70;89.82;100171.03;5107937;27;20084;-81
2022/11/08 11:49:49;;;;;;;6.68;1.75;;;;;;;11.82;79.60;100162.41;5054141;27;20060;-81
2022/11/08 11:53:35;;;;;;;2.97;1.33;;;;;;;12.01;77.72;100166.50;5132337;27;20072;-82
2022/11/08 11:57:52;;;;;;;4.05;2.03;;;;;;;12.00;75.78;100159.59;5133437;27;20047;-82
2022/11/08 12:01:27;;;;;;;3.97;1.40;;;;;;;12.05;75.49;100163.56;5079047;28;20126;-82
2022/11/08 12:04:45;;;;;;;4.28;1.23;;;;;;;12.07;74.96;100155.63;5090744;28;20441;-82
2022/11/08 12:08:14;;;;;;;3.17;1.38;;;;;;;12.06;75.64;100159.16;5091227;28;20093;-82
2022/11/08 12:11:35;;;;;;;2.47;1.10;;;;;;;12.12;74.96;100152.69;5133664;28;20071;-82
2022/11/08 12:15:10;;;;;;;3.92;1.48;;;;;;;12.14;74.46;100145.59;5147205;28;20073;-81
2022/11/08 12:19:06;;;;;;;3.63;1.17;;;;;;;12.22;74.30;100149.41;5154641;28;20043;-81
2022/11/08 12:22:51;;;;;;;3.75;1.60;;;;;;;12.22;75.88;100149.41;5050665;28;20055;-81
2022/11/08 12:26:06;;;;;;;3.80;1.73;;;;;;;12.18;75.30;100142.66;5077929;27;20089;-81
2022/11/08 12:29:24;;;;;;;5.20;1.75;;;;;;;12.27;75.01;100144.69;5133757;28;20114;-84
2022/11/08 12:32:42;;;;;;;4.47;2.22;;;;;;;12.34;75.60;100138.09;5133434;28;20068;-81
2022/11/08 12:35:47;;;;;;;5.00;1.75;;;;;;;12.37;74.52;100130.97;5134143;28;20054;-81
2022/11/08 12:38:50;;;;;;;4.90;2.08;;;;;;;12.38;73.22;100127.41;5134499;28;20109;-81
2022/11/08 12:42:09;;;;;;;5.07;1.55;;;;;;;12.46;72.75;100112.84;5133588;28;20045;-81
2022/11/08 12:45:31;;;;;;;3.95;2.15;;;;;;;12.45;72.12;100107.72;5134060;28;20111;-82
2022/11/08 12:49:08;;;;;;;3.63;1.48;;;;;;;12.50;75.77;100105.63;5133831;28;20554;-83
2022/11/08 12:52:42;;;;;;;4.50;1.60;;;;;;;12.49;75.88;100096.91;5133625;28;20070;-79
2022/11/08 12:55:53;;;;;;;4.53;1.25;;;;;;;12.44;72.48;100085.88;5134928;28;20058;-81
2022/11/08 12:58:57;;;;;;;5.15;2.78;;;;;;;12.48;72.72;100097.88;5133681;28;20046;-81
2022/11/08 13:02:04;;;;;;;6.95;2.45;;;;;;;12.55;76.70;100095.66;5132517;28;20471;-84
2022/11/08 13:05:18;;;;;;;3.60;1.70;;;;;;;12.51;75.47;100086.34;5132720;28;20042;-84
2022/11/08 13:08:45;;;;;;;5.30;2.90;;;;;;;12.50;76.42;100095.13;5135661;27;20107;-82
2022/11/08 13:11:53;;;;;;;5.88;1.73;;;;;;;12.47;77.42;100082.22;5135613;27;20115;-85
2022/11/08 13:15:01;;;;;;;4.82;2.30;;;;;;;12.43;73.95;100088.63;5135012;27;20588;-82
2022/11/08 13:18:05;;;;;;;6.28;2.55;;;;;;;12.45;73.22;100087.59;5135372;27;20124;-82
2022/11/08 13:21:28;;;;;;;5.20;2.00;;;;;;;12.49;72.98;100073.31;5137162;27;20396;-82
2022/11/08 13:24:40;;;;;;;5.75;3.50;;;;;;;12.47;74.55;100072.56;5137510;27;20068;-82
2022/11/08 13:27:45;;;;;;;8.30;4.38;;;;;;;12.45;75.79;100077.09;5137557;27;20123;-80
2022/11/08 13:31:03;;;;;;;4.25;2.30;;;;;;;12.46;79.87;100075.31;5137638;27;20076;-82
2022/11/08 13:34:37;;;;;;;3.17;1.50;;;;;;;12.43;79.96;100078.13;5136910;27;20115;-80
2022/11/08 13:37:54;;;;;;;3.75;1.33;;;;;;;12.44;80.54;100074.56;5135512;27;20042;-81
2022/11/08 13:41:20;;;;;;;11.10;6.53;;;;;;;12.36;81.30;100072.47;5135396;27;20104;-82
2022/11/08 13:44:54;;;;;;;8.15;4.00;;;;;;;12.39;81.17;100076.66;5134780;27;20089;-82
2022/11/08 13:48:19;;;;;;;6.05;2.38;;;;;;;12.38;82.33;100072.34;5134452;27;20046;-77
2022/11/08 13:51:37;;;;;;;8.70;2.53;;;;;;;12.31;82.26;100072.75;5134600;27;20053;-80
2022/11/08 13:54:50;;;;;;;8.13;2.90;;;;;;;12.27;82.28;100073.91;5135291;27;20054;-80
2022/11/08 13:57:59;;;;;;;4.95;1.85;;;;;;;12.31;84.32;100071.91;5134959;27;20510;-84
2022/11/08 14:01:17;;;;;;;4.55;1.45;;;;;;;12.29;85.41;100076.44;5135484;27;20523;-82
2022/11/08 14:04:28;;;;;;;12.05;5.70;;;;;;;12.21;83.90;100066.44;5135363;27;20091;-82
2022/11/08 14:07:46;;;;;;;5.88;3.13;;;;;;;12.19;86.36;100073.59;5136325;27;20042;-81
2022/11/08 14:11:22;;;;;;;7.35;2.70;;;;;;;12.08;87.81;100073.44;5135949;27;20046;-80
2022/11/08 14:14:45;;;;;;;6.65;2.45;;;;;;;12.01;87.27;100082.66;5135108;27;20106;-81
2022/11/08 14:18:00;;;;;;;9.90;5.90;;;;;;;12.02;86.93;100068.59;5135409;27;20042;-81
2022/11/08 14:21:07;;;;;;;9.68;4.47;;;;;;;11.99;87.67;100063.56;5135136;27;20578;-82
2022/11/08 14:24:21;;;;;;;7.03;3.80;;;;;;;11.99;87.58;100063.56;5135780;27;20507;-82
2022/11/08 14:27:39;;;;;;;9.30;4.25;;;;;;;11.95;87.53;100072.56;5135666;27;20042;-83
2022/11/08 14:30:50;;;;;;;4.38;2.58;;;;;;;11.92;88.92;100067.53;5135634;27;20152;-84
2022/11/08 14:33:56;;;;;;;8.40;2.85;;;;;;;11.81;88.65;100057.72;5135579;27;20428;-83
2022/11/08 14:37:12;;;;;;;9.02;2.30;;;;;;;11.90;89.31;100058.91;5135549;27;20474;-83
2022/11/08 14:40:34;;;;;;;7.07;2.72;;;;;;;11.80;89.43;100049.00;5134721;27;20046;-82
2022/11/08 14:43:48;;;;;;;8.45;2.53;;;;;;;11.88;89.05;100047.72;5135467;27;20054;-82
2022/11/08 14:46:52;;;;;;;6.38;3.08;;;;;;;11.74;89.63;100038.09;5135467;27;20035;-82
2022/11/08 14:49:59;;;;;;;4.32;2.40;;;;;;;11.77;90.28;100044.00;5135678;27;20050;-81
2022/11/08 14:53:29;;;;;;;9.25;2.47;;;;;;;11.66;90.71;100041.22;5135323;27;20077;-82
2022/11/08 14:56:38;;;;;;;4.40;1.90;;;;;;;11.73;91.56;100042.50;5135239;27;20054;-82
2022/11/08 14:59:42;;;;;;;5.63;1.70;;;;;;;11.68;90.14;100051.56;5135271;27;20046;-83
2022/11/08 15:02:52;;;;;;;4.45;1.73;;;;;;;11.71;89.88;100052.25;5135457;27;20116;-82
2022/11/08 15:05:59;;;;;;;4.28;1.48;;;;;;;11.74;89.46;100048.56;5134434;27;20047;-83
2022/11/08 15:09:35;;;;;;;9.43;6.45;;;;;;;11.67;89.90;100055.97;5138254;27;20462;-81
2022/11/08 15:12:44;;;;;;;17.70;13.27;;;;;;;11.74;89.44;100059.91;5157362;27;20038;-82
2022/11/08 15:16:01;;;;;;;9.40;4.78;;;;;;;11.76;90.14;100059.78;5136682;27;20054;-82
2022/11/08 15:19:41;;;;;;;7.05;3.67;;;;;;;11.75;88.26;100052.88;5135626;27;20577;-83
2022/11/08 15:22:46;;;;;;;5.15;2.92;;;;;;;11.76;88.38;100054.56;5102775;27;20523;-82
2022/11/08 15:26:00;;;;;;;5.93;3.38;;;;;;;11.74;88.41;100046.81;5132263;27;20396;-82
2022/11/08 15:29:18;;;;;;;6.80;3.15;;;;;;;11.78;89.06;100053.53;5134792;27;20050;-80
2022/11/08 15:32:22;;;;;;;6.10;2.45;;;;;;;11.77;88.66;100057.09;5134243;27;20065;-82
2022/11/08 15:35:36;;;;;;;12.80;7.70;;;;;;;11.75;88.32;100053.72;5122325;27;20053;-79
2022/11/08 15:39:18;;;;;;;4.82;2.55;;;;;;;11.69;89.44;100051.50;5133555;27;20042;-79